createdAt,value
2018-08-23T00:01:25.912Z,16.70
2018-08-23T00:03:55.066Z,16.70
2018-08-23T00:06:23.549Z,16.70
2018-08-23T00:08:52.427Z,16.70
2018-08-23T00:11:23.780Z,16.70
2018-08-23T00:13:52.339Z,16.70
2018-08-23T00:16:32.747Z,16.60
2018-08-23T00:19:01.901Z,16.60
2018-08-23T00:21:30.382Z,16.60
2018-08-23T00:24:15.826Z,16.60
2018-08-23T00:26:47.634Z,16.60
2018-08-23T00:29:33.335Z,16.60
2018-08-23T00:32:03.335Z,16.60
2018-08-23T00:34:33.115Z,16.60
2018-08-23T00:37:02.804Z,16.60
2018-08-23T00:39:31.342Z,16.60
2018-08-23T00:42:05.954Z,16.60
2018-08-23T00:44:51.131Z,16.60
2018-08-23T00:47:19.595Z,16.50
2018-08-23T00:49:48.063Z,16.50
2018-08-23T00:52:18.419Z,16.60
2018-08-23T00:54:46.863Z,16.60
2018-08-23T00:57:15.359Z,16.60
2018-08-23T00:59:47.894Z,16.60
2018-08-23T01:02:16.366Z,16.60
2018-08-23T01:04:46.023Z,16.60
2018-08-23T01:07:21.641Z,16.60
2018-08-23T01:09:50.107Z,16.60
2018-08-23T01:12:19.962Z,16.70
2018-08-23T01:14:49.906Z,16.70
2018-08-23T01:17:19.195Z,16.70
2018-08-23T01:19:57.263Z,16.70
2018-08-23T01:22:25.718Z,16.80
2018-08-23T01:24:54.182Z,16.70
2018-08-23T01:27:27.999Z,16.70
2018-08-23T01:29:56.471Z,16.70
2018-08-23T01:32:31.074Z,16.60
2018-08-23T01:34:59.510Z,16.60
2018-08-23T01:37:36.722Z,16.60
2018-08-23T01:40:07.251Z,16.50
2018-08-23T01:42:36.748Z,16.50
2018-08-23T01:45:06.639Z,16.50
2018-08-23T01:47:41.377Z,16.50
2018-08-23T01:50:10.583Z,16.50
2018-08-23T01:52:43.972Z,16.50
2018-08-23T01:55:13.472Z,16.50
2018-08-23T01:57:42.063Z,16.50
2018-08-23T02:00:11.280Z,16.60
2018-08-23T02:02:39.743Z,16.60
2018-08-23T02:05:08.394Z,16.60
2018-08-23T02:07:36.844Z,16.60
2018-08-23T02:10:05.662Z,16.60
2018-08-23T02:12:34.129Z,16.60
2018-08-23T02:15:04.229Z,16.60
2018-08-23T02:17:37.322Z,16.50
2018-08-23T02:20:05.854Z,16.50
2018-08-23T02:22:34.299Z,16.40
2018-08-23T02:25:02.815Z,16.40
2018-08-23T02:27:31.271Z,16.30
2018-08-23T02:29:59.737Z,16.30
2018-08-23T02:32:28.192Z,16.30
2018-08-23T02:35:04.085Z,16.30
2018-08-23T02:37:33.073Z,16.30
2018-08-23T02:40:01.536Z,16.30
2018-08-23T02:42:29.996Z,15.80
2018-08-23T02:45:02.671Z,16.40
2018-08-23T02:47:32.010Z,16.40
2018-08-23T02:50:00.482Z,16.40
2018-08-23T02:52:33.139Z,16.40
2018-08-23T02:55:01.606Z,16.40
2018-08-23T02:57:30.052Z,16.40
2018-08-23T02:59:58.539Z,16.40
2018-08-23T03:02:26.978Z,16.40
2018-08-23T03:04:55.461Z,16.40
2018-08-23T03:07:27.008Z,16.40
2018-08-23T03:09:55.503Z,16.40
2018-08-23T03:12:23.962Z,16.40
2018-08-23T03:14:52.443Z,16.40
2018-08-23T03:17:28.643Z,16.40
2018-08-23T03:20:00.903Z,16.40
2018-08-23T03:22:30.214Z,16.30
2018-08-23T03:25:01.477Z,16.30
2018-08-23T03:27:30.547Z,16.20
2018-08-23T03:29:59.367Z,16.20
2018-08-23T03:32:28.234Z,16.20
2018-08-23T03:34:57.139Z,16.20
2018-08-23T03:37:25.672Z,16.20
2018-08-23T03:39:54.198Z,16.10
2018-08-23T03:42:22.804Z,16.00
2018-08-23T03:44:52.347Z,16.00
2018-08-23T03:47:20.932Z,16.00
2018-08-23T03:49:49.596Z,15.90
2018-08-23T03:52:22.417Z,15.80
2018-08-23T03:54:58.260Z,15.80
2018-08-23T03:57:32.056Z,15.70
2018-08-23T04:00:00.553Z,15.70
2018-08-23T04:02:29.028Z,15.70
2018-08-23T04:05:09.139Z,15.70
2018-08-23T04:07:38.791Z,15.80
2018-08-23T04:10:07.824Z,15.80
2018-08-23T04:12:39.264Z,15.80
2018-08-23T04:15:24.076Z,15.80
2018-08-23T04:17:52.638Z,15.80
2018-08-23T04:20:21.141Z,15.80
2018-08-23T04:22:50.148Z,15.90
2018-08-23T04:25:18.546Z,15.90
2018-08-23T04:27:47.007Z,16.00
2018-08-23T04:30:15.491Z,16.00
2018-08-23T04:32:45.122Z,16.10
2018-08-23T04:35:22.546Z,16.10
2018-08-23T04:37:51.614Z,16.20
2018-08-23T04:40:20.102Z,16.20
2018-08-23T04:42:48.569Z,16.30
2018-08-23T04:45:22.181Z,16.30
2018-08-23T04:47:56.042Z,16.40
2018-08-23T04:50:25.148Z,16.50
2018-08-23T04:52:53.779Z,16.60
2018-08-23T04:55:22.302Z,16.70
2018-08-23T04:57:50.770Z,17.00
2018-08-23T05:00:19.203Z,17.30
2018-08-23T05:02:47.779Z,17.70
2018-08-23T05:05:16.237Z,18.00
2018-08-23T05:07:44.818Z,18.20
2018-08-23T05:10:13.464Z,18.30
2018-08-23T05:12:42.028Z,18.50
2018-08-23T05:15:22.547Z,18.70
2018-08-23T05:17:51.061Z,19.00
2018-08-23T05:20:19.587Z,19.20
2018-08-23T05:22:56.219Z,19.30
2018-08-23T05:25:25.371Z,19.80
2018-08-23T05:28:05.854Z,20.00
2018-08-23T05:30:34.415Z,20.00
2018-08-23T05:33:11.016Z,20.20
2018-08-23T05:35:39.571Z,20.30
2018-08-23T05:38:08.915Z,20.40
2018-08-23T05:40:43.163Z,20.50
2018-08-23T05:43:11.982Z,20.50
2018-08-23T05:45:45.900Z,20.50
2018-08-23T05:48:32.796Z,20.50
2018-08-23T05:51:13.357Z,20.60
2018-08-23T05:53:49.398Z,21.00
2018-08-23T05:56:18.960Z,21.10
2018-08-23T05:58:47.455Z,21.30
2018-08-23T06:01:15.946Z,21.50
2018-08-23T06:03:44.395Z,21.50
2018-08-23T06:06:12.857Z,21.40
2018-08-23T06:08:43.548Z,21.40
2018-08-23T06:11:12.356Z,21.60
2018-08-23T06:13:41.007Z,21.70
2018-08-23T06:16:09.446Z,22.00
2018-08-23T06:18:37.895Z,22.40
2018-08-23T06:21:06.403Z,22.60
2018-08-23T06:23:57.920Z,23.20
2018-08-23T06:26:35.282Z,23.30
2018-08-23T06:29:03.758Z,23.40
2018-08-23T06:31:32.199Z,23.40
2018-08-23T06:34:00.735Z,23.20
2018-08-23T06:36:31.926Z,23.20
2018-08-23T06:39:01.137Z,23.00
2018-08-23T06:41:29.980Z,23.00
2018-08-23T06:43:58.406Z,22.80
2018-08-23T06:46:26.877Z,22.80
2018-08-23T06:48:55.395Z,22.70
2018-08-23T06:51:23.801Z,22.50
2018-08-23T06:53:54.267Z,22.60
2018-08-23T06:56:22.743Z,22.60
2018-08-23T06:58:51.219Z,22.40
2018-08-23T07:01:35.361Z,22.30
2018-08-23T07:04:05.639Z,22.30
2018-08-23T07:06:34.866Z,22.50
2018-08-23T07:09:05.366Z,22.60
2018-08-23T07:11:33.852Z,22.40
2018-08-23T07:14:07.626Z,22.40
2018-08-23T07:16:36.104Z,22.30
2018-08-23T07:19:09.083Z,22.30
2018-08-23T07:21:37.563Z,22.10
2018-08-23T07:24:07.924Z,22.00
2018-08-23T07:26:36.457Z,22.00
2018-08-23T07:29:04.924Z,22.10
2018-08-23T07:31:33.557Z,22.30
2018-08-23T07:34:02.028Z,22.60
2018-08-23T07:36:31.676Z,23.00
2018-08-23T07:39:00.136Z,23.30
2018-08-23T07:41:28.644Z,23.80
2018-08-23T07:43:57.090Z,24.10
2018-08-23T07:46:25.872Z,24.30
2018-08-23T07:48:54.385Z,24.70
2018-08-23T07:51:25.221Z,25.70
2018-08-23T07:53:54.800Z,27.00
2018-08-23T07:56:27.787Z,28.30
2018-08-23T07:58:57.386Z,29.30
2018-08-23T08:01:30.160Z,29.50
2018-08-23T08:03:59.467Z,29.10
2018-08-23T08:06:28.688Z,28.90
2018-08-23T08:08:58.582Z,28.60
2018-08-23T08:11:28.160Z,28.30
2018-08-23T08:14:04.246Z,27.70
2018-08-23T08:16:33.573Z,27.40
2018-08-23T08:19:02.223Z,27.50
2018-08-23T08:21:30.827Z,27.40
2018-08-23T08:24:00.835Z,27.30
2018-08-23T08:26:31.744Z,27.20
2018-08-23T08:29:00.406Z,27.20
2018-08-23T08:31:28.904Z,27.20
2018-08-23T08:33:58.639Z,27.50
2018-08-23T08:36:33.218Z,28.00
2018-08-23T08:39:02.818Z,29.40
2018-08-23T08:41:34.441Z,30.70
2018-08-23T08:44:02.958Z,31.20
2018-08-23T08:46:31.490Z,31.70
2018-08-23T08:48:59.989Z,31.50
2018-08-23T08:51:30.383Z,31.60
2018-08-23T08:54:00.194Z,31.30
2018-08-23T08:56:38.358Z,31.20
2018-08-23T08:59:06.861Z,31.20
2018-08-23T09:01:35.459Z,30.90
2018-08-23T09:04:04.134Z,30.50
2018-08-23T09:06:36.951Z,30.30
2018-08-23T09:09:13.056Z,30.20
2018-08-23T09:11:42.159Z,30.20
2018-08-23T09:14:10.762Z,30.30
2018-08-23T09:16:39.302Z,30.60
2018-08-23T09:19:07.800Z,30.80
2018-08-23T09:21:36.302Z,31.00
2018-08-23T09:24:19.927Z,30.90
2018-08-23T09:26:48.407Z,31.10
2018-08-23T09:29:29.531Z,31.80
2018-08-23T09:32:08.037Z,32.10
2018-08-23T09:34:36.815Z,32.40
2018-08-23T09:37:05.703Z,32.90
2018-08-23T09:39:34.195Z,33.60
2018-08-23T09:42:02.700Z,34.50
2018-08-23T09:44:31.217Z,34.90
2018-08-23T09:47:03.956Z,35.70
2018-08-23T09:49:32.485Z,35.90
2018-08-23T09:52:00.991Z,36.70
2018-08-23T09:54:30.010Z,37.40
2018-08-23T09:56:58.452Z,37.70
2018-08-23T09:59:28.230Z,37.60
2018-08-23T10:02:05.201Z,37.50
2018-08-23T10:04:38.995Z,37.70
2018-08-23T10:07:12.780Z,38.20
2018-08-23T10:09:46.492Z,36.90
2018-08-23T10:12:20.363Z,37.30
2018-08-23T10:14:54.078Z,37.20
2018-08-23T10:17:27.915Z,37.80
2018-08-23T10:20:01.551Z,38.10
2018-08-23T10:22:38.100Z,39.00
2018-08-23T10:25:29.258Z,39.30
2018-08-23T10:27:57.752Z,39.70
2018-08-23T10:30:26.830Z,40.00
2018-08-23T10:32:55.295Z,39.80
2018-08-23T10:35:23.891Z,39.70
2018-08-23T10:37:52.772Z,40.30
2018-08-23T10:40:21.319Z,39.90
2018-08-23T10:42:49.779Z,39.50
2018-08-23T10:45:18.323Z,39.70
2018-08-23T10:48:19.024Z,40.50
2018-08-23T10:50:48.872Z,40.00
2018-08-23T10:53:17.855Z,39.80
2018-08-23T10:55:46.663Z,39.80
2018-08-23T10:58:15.176Z,39.00
2018-08-23T11:00:43.773Z,38.90
2018-08-23T11:03:12.312Z,39.90
2018-08-23T11:05:40.832Z,40.50
2018-08-23T11:08:14.780Z,41.00
2018-08-23T11:10:48.564Z,41.00
2018-08-23T11:13:22.335Z,41.60
2018-08-23T11:15:55.043Z,40.30
2018-08-23T11:18:29.106Z,39.30
2018-08-23T11:20:57.588Z,38.70
2018-08-23T11:23:27.063Z,37.30
2018-08-23T11:25:55.813Z,38.70
2018-08-23T11:28:25.474Z,38.40
2018-08-23T11:30:54.571Z,38.30
2018-08-23T11:33:23.062Z,38.30
2018-08-23T11:35:51.562Z,36.50
2018-08-23T11:38:20.052Z,35.90
2018-08-23T11:40:48.552Z,35.40
2018-08-23T11:43:17.031Z,35.50
2018-08-23T11:45:45.547Z,36.00
2018-08-23T11:48:14.031Z,36.70
2018-08-23T11:50:42.552Z,36.30
2018-08-23T11:53:11.014Z,35.90
2018-08-23T11:55:39.495Z,35.80
2018-08-23T11:58:08.058Z,35.80
2018-08-23T12:00:36.395Z,35.40
2018-08-23T12:03:05.018Z,35.00
2018-08-23T12:05:33.448Z,36.00
2018-08-23T12:08:01.900Z,36.50
2018-08-23T12:10:30.378Z,37.40
2018-08-23T12:12:58.826Z,38.30
2018-08-23T12:15:29.818Z,38.80
2018-08-23T12:17:58.667Z,38.40
2018-08-23T12:20:27.133Z,38.70
2018-08-23T12:22:55.592Z,38.50
2018-08-23T12:25:24.055Z,39.10
2018-08-23T12:27:58.399Z,39.40
2018-08-23T12:30:26.904Z,39.60
2018-08-23T12:32:55.473Z,38.80
2018-08-23T12:35:23.991Z,38.80
2018-08-23T12:38:02.435Z,38.00
2018-08-23T12:40:36.694Z,38.60
2018-08-23T12:43:10.428Z,38.90
2018-08-23T12:45:40.076Z,39.00
2018-08-23T12:48:09.515Z,38.60
2018-08-23T12:50:37.975Z,38.90
2018-08-23T12:53:06.572Z,39.30
2018-08-23T12:55:35.008Z,39.70
2018-08-23T12:58:03.698Z,39.70
2018-08-23T13:00:32.138Z,38.60
2018-08-23T13:03:00.637Z,38.30
2018-08-23T13:05:29.026Z,38.40
2018-08-23T13:07:57.458Z,38.50
2018-08-23T13:10:25.923Z,38.80
2018-08-23T13:12:54.351Z,37.90
2018-08-23T13:15:22.810Z,38.20
2018-08-23T13:17:51.248Z,38.30
2018-08-23T13:20:19.711Z,37.60
2018-08-23T13:22:48.161Z,37.70
2018-08-23T13:25:16.635Z,37.50
2018-08-23T13:27:45.148Z,37.20
2018-08-23T13:30:13.518Z,36.90
2018-08-23T13:32:41.960Z,37.10
2018-08-23T13:35:10.775Z,36.50
2018-08-23T13:37:39.235Z,36.10
2018-08-23T13:40:11.902Z,36.00
2018-08-23T13:42:40.390Z,35.50
2018-08-23T13:45:08.820Z,34.80
2018-08-23T13:47:37.251Z,34.50
2018-08-23T13:50:05.739Z,34.10
2018-08-23T13:52:34.296Z,34.00
2018-08-23T13:55:02.724Z,33.80
2018-08-23T13:57:31.156Z,33.60
2018-08-23T13:59:59.609Z,34.00
2018-08-23T14:02:28.065Z,34.20
2018-08-23T14:04:56.553Z,34.70
2018-08-23T14:07:25.072Z,34.70
2018-08-23T14:09:53.519Z,34.10
2018-08-23T14:12:22.008Z,33.70
2018-08-23T14:14:50.490Z,33.50
2018-08-23T14:17:18.955Z,33.40
2018-08-23T14:19:47.403Z,33.20
2018-08-23T14:22:15.976Z,33.30
2018-08-23T14:24:44.762Z,33.50
2018-08-23T14:27:13.285Z,33.20
2018-08-23T14:29:41.680Z,33.30
2018-08-23T14:32:10.143Z,33.30
2018-08-23T14:34:38.562Z,33.60
2018-08-23T14:37:07.303Z,33.60
2018-08-23T14:39:35.721Z,33.50
2018-08-23T14:42:04.228Z,33.70
2018-08-23T14:44:32.675Z,33.60
2018-08-23T14:47:06.495Z,33.40
2018-08-23T14:49:35.471Z,33.30
2018-08-23T14:52:04.875Z,33.30
2018-08-23T14:54:38.551Z,33.00
2018-08-23T14:57:12.383Z,32.80
2018-08-23T14:59:41.163Z,32.70
2018-08-23T15:02:09.663Z,32.00
2018-08-23T15:04:38.163Z,31.90
2018-08-23T15:07:07.194Z,31.70
2018-08-23T15:09:42.733Z,31.50
2018-08-23T15:12:11.301Z,31.20
2018-08-23T15:14:39.848Z,31.10
2018-08-23T15:17:09.087Z,30.90
2018-08-23T15:19:37.574Z,30.70
2018-08-23T15:22:06.777Z,30.90
2018-08-23T15:24:35.203Z,30.90
2018-08-23T15:27:03.807Z,30.90
2018-08-23T15:29:32.135Z,30.80
2018-08-23T15:32:00.686Z,30.80
2018-08-23T15:34:29.102Z,30.70
2018-08-23T15:36:57.562Z,30.70
2018-08-23T15:39:26.039Z,30.50
2018-08-23T15:41:55.055Z,30.40
2018-08-23T15:44:23.704Z,30.30
2018-08-23T15:46:52.241Z,30.20
2018-08-23T15:49:21.074Z,30.20
2018-08-23T15:51:49.622Z,30.20
2018-08-23T15:54:19.482Z,30.10
2018-08-23T15:56:48.087Z,29.80
2018-08-23T15:59:16.851Z,29.70
2018-08-23T16:01:45.330Z,29.40
2018-08-23T16:04:13.826Z,29.40
2018-08-23T16:06:42.322Z,29.30
2018-08-23T16:09:12.244Z,29.20
2018-08-23T16:11:40.859Z,29.20
2018-08-23T16:14:09.592Z,29.00
2018-08-23T16:16:43.398Z,28.90
2018-08-23T16:19:17.231Z,28.70
2018-08-23T16:21:49.946Z,28.60
2018-08-23T16:24:18.455Z,28.50
2018-08-23T16:26:52.242Z,28.40
2018-08-23T16:29:20.744Z,28.30
2018-08-23T16:31:49.217Z,28.30
2018-08-23T16:34:17.719Z,28.20
2018-08-23T16:36:46.208Z,28.10
2018-08-23T16:39:14.782Z,27.90
2018-08-23T16:41:43.299Z,27.90
2018-08-23T16:44:11.852Z,27.90
2018-08-23T16:46:40.352Z,27.90
2018-08-23T16:49:08.875Z,27.80
2018-08-23T16:51:37.363Z,27.70
2018-08-23T16:54:05.880Z,27.70
2018-08-23T16:56:34.344Z,27.70
2018-08-23T16:59:02.804Z,27.70
2018-08-23T17:01:31.254Z,27.70
2018-08-23T17:03:59.707Z,27.80
2018-08-23T17:06:28.896Z,27.80
2018-08-23T17:08:57.391Z,27.70
2018-08-23T17:11:25.870Z,27.70
2018-08-23T17:13:54.312Z,27.70
2018-08-23T17:16:28.166Z,27.70
2018-08-23T17:18:56.591Z,27.60
2018-08-23T17:21:25.060Z,27.60
2018-08-23T17:23:53.499Z,27.50
2018-08-23T17:26:22.001Z,27.50
2018-08-23T17:28:50.437Z,27.40
2018-08-23T17:31:18.909Z,27.20
2018-08-23T17:33:47.351Z,27.10
2018-08-23T17:36:15.826Z,27.10
2018-08-23T17:38:44.255Z,26.90
2018-08-23T17:41:12.718Z,26.60
2018-08-23T17:43:41.235Z,26.30
2018-08-23T17:46:09.763Z,26.10
2018-08-23T17:48:38.192Z,26.00
2018-08-23T17:51:06.651Z,25.70
2018-08-23T17:53:35.163Z,25.60
2018-08-23T17:56:03.706Z,25.40
2018-08-23T17:58:32.196Z,24.90
2018-08-23T18:01:00.752Z,24.50
2018-08-23T18:03:29.264Z,24.30
2018-08-23T18:05:57.762Z,24.00
2018-08-23T18:08:26.292Z,24.00
2018-08-23T18:10:54.776Z,23.90
2018-08-23T18:13:23.339Z,23.60
2018-08-23T18:15:57.247Z,23.40
2018-08-23T18:18:25.774Z,23.30
2018-08-23T18:20:54.273Z,23.20
2018-08-23T18:23:22.779Z,23.10
2018-08-23T18:25:51.259Z,23.10
2018-08-23T18:28:19.808Z,23.10
2018-08-23T18:30:48.294Z,23.00
2018-08-23T18:33:16.869Z,23.00
2018-08-23T18:35:45.364Z,22.90
2018-08-23T18:38:13.889Z,22.90
2018-08-23T18:40:42.380Z,22.80
2018-08-23T18:43:11.048Z,22.70
2018-08-23T18:45:39.538Z,22.70
2018-08-23T18:48:08.051Z,22.60
2018-08-23T18:50:36.640Z,22.50
2018-08-23T18:53:05.178Z,22.50
2018-08-23T18:55:33.624Z,22.50
2018-08-23T18:58:02.075Z,22.40
2018-08-23T19:00:30.575Z,22.40
2018-08-23T19:02:59.011Z,22.40
2018-08-23T19:05:27.488Z,22.30
2018-08-23T19:07:55.928Z,22.20
2018-08-23T19:10:24.402Z,22.20
2018-08-23T19:12:52.919Z,22.10
2018-08-23T19:15:26.687Z,22.10
2018-08-23T19:17:55.118Z,22.10
2018-08-23T19:20:23.600Z,22.10
2018-08-23T19:22:52.027Z,22.00
2018-08-23T19:25:20.480Z,22.00
2018-08-23T19:27:48.955Z,22.00
2018-08-23T19:30:17.411Z,21.90
2018-08-23T19:32:45.867Z,21.90
2018-08-23T19:35:14.360Z,21.90
2018-08-23T19:37:42.815Z,21.90
2018-08-23T19:40:11.287Z,21.90
2018-08-23T19:42:39.728Z,21.80
2018-08-23T19:45:08.193Z,21.90
2018-08-23T19:47:42.029Z,21.80
2018-08-23T19:50:11.336Z,21.80
2018-08-23T19:52:39.891Z,21.80
2018-08-23T19:55:09.431Z,21.80
2018-08-23T19:57:38.119Z,21.80
2018-08-23T20:00:08.057Z,21.90
2018-08-23T20:02:36.523Z,21.90
2018-08-23T20:05:05.159Z,21.80
2018-08-23T20:07:33.774Z,21.80
2018-08-23T20:10:02.299Z,21.80
2018-08-23T20:12:30.837Z,21.80
2018-08-23T20:14:59.346Z,21.80
2018-08-23T20:17:27.878Z,21.80
2018-08-23T20:19:56.367Z,21.80
2018-08-23T20:22:24.883Z,21.80
2018-08-23T20:24:53.415Z,21.80
2018-08-23T20:27:21.951Z,21.90
2018-08-23T20:29:50.439Z,21.90
2018-08-23T20:32:19.049Z,21.90
2018-08-23T20:34:47.462Z,21.90
2018-08-23T20:37:15.963Z,21.70
2018-08-23T20:39:44.521Z,21.50
2018-08-23T20:42:12.987Z,21.30
2018-08-23T20:44:41.487Z,21.20
2018-08-23T20:47:10.100Z,21.10
2018-08-23T20:49:38.524Z,21.10
2018-08-23T20:52:07.082Z,21.00
2018-08-23T20:54:35.574Z,21.00
2018-08-23T20:57:04.108Z,21.00
2018-08-23T20:59:32.603Z,20.90
2018-08-23T21:02:01.112Z,20.90
2018-08-23T21:04:29.636Z,20.90
2018-08-23T21:06:58.160Z,20.90
2018-08-23T21:09:26.676Z,20.90
2018-08-23T21:11:55.191Z,20.80
2018-08-23T21:14:23.711Z,20.80
2018-08-23T21:16:52.208Z,20.80
2018-08-23T21:19:20.720Z,20.80
2018-08-23T21:21:49.199Z,20.80
2018-08-23T21:24:17.703Z,20.80
2018-08-23T21:26:46.172Z,20.70
2018-08-23T21:29:14.687Z,20.70
2018-08-23T21:31:43.178Z,20.70
2018-08-23T21:34:11.703Z,20.70
2018-08-23T21:36:40.207Z,20.70
2018-08-23T21:39:09.666Z,20.60
2018-08-23T21:41:38.191Z,20.60
2018-08-23T21:44:06.705Z,20.50
2018-08-23T21:46:35.208Z,20.50
2018-08-23T21:49:03.736Z,20.50
2018-08-23T21:51:32.252Z,20.50
2018-08-23T21:54:00.747Z,20.50
2018-08-23T21:56:29.203Z,20.40
2018-08-23T21:58:57.733Z,20.40
2018-08-23T22:01:26.231Z,20.40
2018-08-23T22:03:54.678Z,20.40
2018-08-23T22:06:23.140Z,20.40
2018-08-23T22:08:51.609Z,20.30
2018-08-23T22:11:20.063Z,20.30
2018-08-23T22:13:48.506Z,20.30
2018-08-23T22:16:16.932Z,20.30
2018-08-23T22:18:45.415Z,20.30
2018-08-23T22:21:13.837Z,20.20
2018-08-23T22:23:42.295Z,20.10
2018-08-23T22:26:10.768Z,20.10
2018-08-23T22:28:39.205Z,20.10
2018-08-23T22:31:07.662Z,20.00
2018-08-23T22:33:36.090Z,20.00
2018-08-23T22:36:04.654Z,20.00
2018-08-23T22:38:33.095Z,19.90
2018-08-23T22:41:01.539Z,19.90
2018-08-23T22:43:29.977Z,19.90
2018-08-23T22:45:58.431Z,19.80
2018-08-23T22:48:26.871Z,19.80
2018-08-23T22:50:55.333Z,19.70
2018-08-23T22:53:23.858Z,19.70
2018-08-23T22:55:52.390Z,19.70
2018-08-23T22:58:20.880Z,19.70
2018-08-23T23:00:49.375Z,19.70
2018-08-23T23:03:23.240Z,19.70
2018-08-23T23:05:51.771Z,19.70
2018-08-23T23:08:20.250Z,19.60
2018-08-23T23:10:48.762Z,19.60
2018-08-23T23:13:17.248Z,19.50
2018-08-23T23:15:45.762Z,19.40
2018-08-23T23:18:14.251Z,19.30
2018-08-23T23:20:42.800Z,19.30
2018-08-23T23:23:11.305Z,19.20
2018-08-23T23:25:39.818Z,19.10
2018-08-23T23:28:08.298Z,19.00
2018-08-23T23:30:36.801Z,19.00
2018-08-23T23:33:05.326Z,18.90
2018-08-23T23:35:33.812Z,18.90
2018-08-23T23:38:02.327Z,18.80
2018-08-23T23:40:30.814Z,18.80
2018-08-23T23:42:59.335Z,18.80
2018-08-23T23:45:27.860Z,18.80
2018-08-23T23:47:56.353Z,18.70
2018-08-23T23:50:24.835Z,18.80
2018-08-23T23:52:53.332Z,18.70
2018-08-23T23:55:21.797Z,18.70
2018-08-23T23:57:50.285Z,18.70
